sensor_id;sensor_type;location;lat;lon;timestamp;P1;durP1;ratioP1;P2;durP2;ratioP2
51602;SDS011;37954;51.980;5.850;2022-12-07T00:00:10;6.83;;;5.97;;
51602;SDS011;37954;51.980;5.850;2022-12-07T00:04:22;5.83;;;5.07;;
51602;SDS011;37954;51.980;5.850;2022-12-07T00:08:34;6.13;;;5.00;;
51602;SDS011;37954;51.980;5.850;2022-12-07T00:12:46;5.60;;;4.50;;
51602;SDS011;37954;51.980;5.850;2022-12-07T00:16:58;5.30;;;4.60;;
51602;SDS011;37954;51.980;5.850;2022-12-07T00:21:21;7.43;;;4.83;;
51602;SDS011;37954;51.980;5.850;2022-12-07T00:25:35;5.87;;;4.80;;
51602;SDS011;37954;51.980;5.850;2022-12-07T00:29:47;7.93;;;5.40;;
51602;SDS011;37954;51.980;5.850;2022-12-07T00:33:59;5.63;;;4.90;;
51602;SDS011;37954;51.980;5.850;2022-12-07T00:38:11;11.87;;;5.40;;
51602;SDS011;37954;51.980;5.850;2022-12-07T00:42:22;6.97;;;4.80;;
51602;SDS011;37954;51.980;5.850;2022-12-07T00:46:34;6.50;;;4.90;;
51602;SDS011;37954;51.980;5.850;2022-12-07T00:50:45;6.87;;;5.43;;
51602;SDS011;37954;51.980;5.850;2022-12-07T00:54:57;7.03;;;5.43;;
51602;SDS011;37954;51.980;5.850;2022-12-07T00:59:10;5.93;;;5.33;;
51602;SDS011;37954;51.980;5.850;2022-12-07T01:03:24;9.30;;;5.70;;
51602;SDS011;37954;51.980;5.850;2022-12-07T01:07:35;6.57;;;4.90;;
51602;SDS011;37954;51.980;5.850;2022-12-07T01:11:47;6.87;;;5.23;;
51602;SDS011;37954;51.980;5.850;2022-12-07T01:15:59;9.77;;;5.70;;
51602;SDS011;37954;51.980;5.850;2022-12-07T01:20:12;7.43;;;4.50;;
51602;SDS011;37954;51.980;5.850;2022-12-07T01:24:25;6.67;;;4.90;;
51602;SDS011;37954;51.980;5.850;2022-12-07T01:28:36;8.53;;;5.30;;
51602;SDS011;37954;51.980;5.850;2022-12-07T01:32:48;6.13;;;4.53;;
51602;SDS011;37954;51.980;5.850;2022-12-07T01:36:59;6.57;;;4.87;;
51602;SDS011;37954;51.980;5.850;2022-12-07T01:41:11;9.30;;;5.00;;
51602;SDS011;37954;51.980;5.850;2022-12-07T01:49:42;11.50;;;5.03;;
51602;SDS011;37954;51.980;5.850;2022-12-07T01:53:57;5.40;;;4.33;;
51602;SDS011;37954;51.980;5.850;2022-12-07T01:58:10;9.23;;;5.20;;
51602;SDS011;37954;51.980;5.850;2022-12-07T02:02:25;6.00;;;4.80;;
51602;SDS011;37954;51.980;5.850;2022-12-07T02:06:42;6.27;;;4.80;;
51602;SDS011;37954;51.980;5.850;2022-12-07T02:10:55;6.53;;;4.83;;
51602;SDS011;37954;51.980;5.850;2022-12-07T02:15:09;9.63;;;4.93;;
51602;SDS011;37954;51.980;5.850;2022-12-07T02:19:45;8.47;;;4.50;;
51602;SDS011;37954;51.980;5.850;2022-12-07T02:28:37;11.00;;;4.77;;
51602;SDS011;37954;51.980;5.850;2022-12-07T02:33:22;12.27;;;4.23;;
51602;SDS011;37954;51.980;5.850;2022-12-07T02:37:44;9.97;;;4.30;;
51602;SDS011;37954;51.980;5.850;2022-12-07T02:42:02;6.23;;;3.73;;
51602;SDS011;37954;51.980;5.850;2022-12-07T02:46:22;6.03;;;3.90;;
51602;SDS011;37954;51.980;5.850;2022-12-07T02:50:38;6.23;;;4.33;;
51602;SDS011;37954;51.980;5.850;2022-12-07T02:54:49;5.90;;;3.47;;
51602;SDS011;37954;51.980;5.850;2022-12-07T02:59:02;4.43;;;3.93;;
51602;SDS011;37954;51.980;5.850;2022-12-07T03:03:35;9.37;;;4.77;;
51602;SDS011;37954;51.980;5.850;2022-12-07T03:12:18;10.10;;;4.13;;
51602;SDS011;37954;51.980;5.850;2022-12-07T03:16:36;6.87;;;3.67;;
51602;SDS011;37954;51.980;5.850;2022-12-07T03:20:52;7.87;;;3.77;;
51602;SDS011;37954;51.980;5.850;2022-12-07T03:25:09;7.60;;;4.40;;
51602;SDS011;37954;51.980;5.850;2022-12-07T03:29:25;8.07;;;3.77;;
51602;SDS011;37954;51.980;5.850;2022-12-07T03:38:23;4.87;;;3.30;;
51602;SDS011;37954;51.980;5.850;2022-12-07T03:42:37;4.23;;;3.60;;
51602;SDS011;37954;51.980;5.850;2022-12-07T03:46:56;5.13;;;4.03;;
51602;SDS011;37954;51.980;5.850;2022-12-07T03:56:00;5.73;;;4.10;;
51602;SDS011;37954;51.980;5.850;2022-12-07T04:00:13;6.70;;;4.33;;
51602;SDS011;37954;51.980;5.850;2022-12-07T04:04:25;8.77;;;3.70;;
51602;SDS011;37954;51.980;5.850;2022-12-07T04:08:36;4.97;;;3.73;;
51602;SDS011;37954;51.980;5.850;2022-12-07T04:12:48;8.43;;;3.63;;
51602;SDS011;37954;51.980;5.850;2022-12-07T04:16:59;5.73;;;3.40;;
51602;SDS011;37954;51.980;5.850;2022-12-07T04:21:11;7.67;;;4.27;;
51602;SDS011;37954;51.980;5.850;2022-12-07T04:25:22;12.23;;;4.10;;
51602;SDS011;37954;51.980;5.850;2022-12-07T04:29:34;8.37;;;5.10;;
51602;SDS011;37954;51.980;5.850;2022-12-07T04:33:45;7.80;;;4.60;;
51602;SDS011;37954;51.980;5.850;2022-12-07T04:37:57;8.73;;;3.10;;
51602;SDS011;37954;51.980;5.850;2022-12-07T04:42:08;3.77;;;2.80;;
51602;SDS011;37954;51.980;5.850;2022-12-07T04:46:20;8.97;;;4.70;;
51602;SDS011;37954;51.980;5.850;2022-12-07T04:50:32;20.90;;;6.90;;
51602;SDS011;37954;51.980;5.850;2022-12-07T04:54:43;16.97;;;6.30;;
51602;SDS011;37954;51.980;5.850;2022-12-07T04:58:55;16.13;;;6.10;;
51602;SDS011;37954;51.980;5.850;2022-12-07T05:03:07;10.63;;;6.07;;
51602;SDS011;37954;51.980;5.850;2022-12-07T05:07:18;9.37;;;3.70;;
51602;SDS011;37954;51.980;5.850;2022-12-07T05:11:29;8.33;;;2.80;;
51602;SDS011;37954;51.980;5.850;2022-12-07T05:15:50;4.93;;;2.33;;
51602;SDS011;37954;51.980;5.850;2022-12-07T05:20:02;5.03;;;2.10;;
51602;SDS011;37954;51.980;5.850;2022-12-07T05:24:15;7.03;;;2.10;;
51602;SDS011;37954;51.980;5.850;2022-12-07T05:28:27;6.77;;;2.33;;
51602;SDS011;37954;51.980;5.850;2022-12-07T05:32:39;4.23;;;2.03;;
51602;SDS011;37954;51.980;5.850;2022-12-07T05:36:50;4.50;;;2.60;;
51602;SDS011;37954;51.980;5.850;2022-12-07T05:41:02;7.67;;;2.50;;
51602;SDS011;37954;51.980;5.850;2022-12-07T05:45:15;6.80;;;2.33;;
51602;SDS011;37954;51.980;5.850;2022-12-07T05:49:27;4.17;;;2.20;;
51602;SDS011;37954;51.980;5.850;2022-12-07T05:53:38;5.03;;;2.17;;
51602;SDS011;37954;51.980;5.850;2022-12-07T05:57:50;6.97;;;2.27;;
51602;SDS011;37954;51.980;5.850;2022-12-07T06:02:20;4.17;;;1.83;;
51602;SDS011;37954;51.980;5.850;2022-12-07T06:06:32;4.90;;;2.07;;
51602;SDS011;37954;51.980;5.850;2022-12-07T06:10:43;3.27;;;2.00;;
51602;SDS011;37954;51.980;5.850;2022-12-07T06:14:55;4.43;;;1.90;;
51602;SDS011;37954;51.980;5.850;2022-12-07T06:19:06;3.77;;;1.77;;
51602;SDS011;37954;51.980;5.850;2022-12-07T06:23:18;1.87;;;1.57;;
51602;SDS011;37954;51.980;5.850;2022-12-07T06:27:29;7.07;;;3.30;;
51602;SDS011;37954;51.980;5.850;2022-12-07T06:31:41;5.97;;;4.07;;
51602;SDS011;37954;51.980;5.850;2022-12-07T06:35:52;6.17;;;3.13;;
51602;SDS011;37954;51.980;5.850;2022-12-07T06:40:04;10.17;;;2.70;;
51602;SDS011;37954;51.980;5.850;2022-12-07T06:44:17;7.10;;;2.03;;
51602;SDS011;37954;51.980;5.850;2022-12-07T06:48:29;4.87;;;2.27;;
51602;SDS011;37954;51.980;5.850;2022-12-07T06:52:40;2.47;;;2.17;;
51602;SDS011;37954;51.980;5.850;2022-12-07T06:56:52;4.20;;;2.23;;
51602;SDS011;37954;51.980;5.850;2022-12-07T07:01:08;7.03;;;2.20;;
51602;SDS011;37954;51.980;5.850;2022-12-07T07:05:23;6.53;;;2.00;;
51602;SDS011;37954;51.980;5.850;2022-12-07T07:09:34;7.00;;;1.87;;
51602;SDS011;37954;51.980;5.850;2022-12-07T07:13:46;2.57;;;1.80;;
51602;SDS011;37954;51.980;5.850;2022-12-07T07:17:57;6.07;;;1.90;;
51602;SDS011;37954;51.980;5.850;2022-12-07T07:22:17;6.87;;;1.93;;
51602;SDS011;37954;51.980;5.850;2022-12-07T07:26:29;7.50;;;2.27;;
51602;SDS011;37954;51.980;5.850;2022-12-07T07:30:41;8.07;;;2.17;;
51602;SDS011;37954;51.980;5.850;2022-12-07T07:34:52;5.13;;;2.07;;
51602;SDS011;37954;51.980;5.850;2022-12-07T07:39:04;5.43;;;1.90;;
51602;SDS011;37954;51.980;5.850;2022-12-07T07:43:16;3.57;;;2.50;;
51602;SDS011;37954;51.980;5.850;2022-12-07T07:47:27;5.87;;;2.37;;
51602;SDS011;37954;51.980;5.850;2022-12-07T07:51:40;5.47;;;2.20;;
51602;SDS011;37954;51.980;5.850;2022-12-07T07:55:54;7.50;;;2.57;;
51602;SDS011;37954;51.980;5.850;2022-12-07T08:00:13;4.53;;;2.47;;
51602;SDS011;37954;51.980;5.850;2022-12-07T08:04:26;9.63;;;2.33;;
51602;SDS011;37954;51.980;5.850;2022-12-07T08:08:37;9.60;;;2.33;;
51602;SDS011;37954;51.980;5.850;2022-12-07T08:12:49;9.83;;;2.40;;
51602;SDS011;37954;51.980;5.850;2022-12-07T08:17:19;8.53;;;2.33;;
51602;SDS011;37954;51.980;5.850;2022-12-07T08:21:31;8.57;;;2.03;;
51602;SDS011;37954;51.980;5.850;2022-12-07T08:25:42;4.80;;;2.23;;
51602;SDS011;37954;51.980;5.850;2022-12-07T08:29:54;5.27;;;2.43;;
51602;SDS011;37954;51.980;5.850;2022-12-07T08:34:05;2.83;;;1.97;;
51602;SDS011;37954;51.980;5.850;2022-12-07T08:38:17;5.63;;;2.13;;
51602;SDS011;37954;51.980;5.850;2022-12-07T08:42:28;8.93;;;1.90;;
51602;SDS011;37954;51.980;5.850;2022-12-07T08:46:51;8.37;;;2.43;;
51602;SDS011;37954;51.980;5.850;2022-12-07T08:51:08;4.07;;;1.90;;
51602;SDS011;37954;51.980;5.850;2022-12-07T08:55:19;8.73;;;2.50;;
51602;SDS011;37954;51.980;5.850;2022-12-07T08:59:31;5.37;;;2.33;;
51602;SDS011;37954;51.980;5.850;2022-12-07T09:03:45;3.53;;;2.27;;
51602;SDS011;37954;51.980;5.850;2022-12-07T09:07:57;6.73;;;2.10;;
51602;SDS011;37954;51.980;5.850;2022-12-07T09:12:12;4.50;;;2.00;;
51602;SDS011;37954;51.980;5.850;2022-12-07T09:16:23;5.03;;;2.20;;
51602;SDS011;37954;51.980;5.850;2022-12-07T09:20:35;7.30;;;2.40;;
51602;SDS011;37954;51.980;5.850;2022-12-07T09:24:47;4.33;;;2.00;;
51602;SDS011;37954;51.980;5.850;2022-12-07T09:28:58;7.27;;;2.27;;
51602;SDS011;37954;51.980;5.850;2022-12-07T09:33:10;3.70;;;2.10;;
51602;SDS011;37954;51.980;5.850;2022-12-07T09:37:21;4.40;;;2.13;;
51602;SDS011;37954;51.980;5.850;2022-12-07T09:41:33;8.20;;;2.27;;
51602;SDS011;37954;51.980;5.850;2022-12-07T09:45:50;5.90;;;2.20;;
51602;SDS011;37954;51.980;5.850;2022-12-07T09:50:07;7.27;;;1.87;;
51602;SDS011;37954;51.980;5.850;2022-12-07T09:54:24;6.27;;;2.03;;
51602;SDS011;37954;51.980;5.850;2022-12-07T09:58:36;3.60;;;2.10;;
51602;SDS011;37954;51.980;5.850;2022-12-07T10:02:50;4.30;;;2.37;;
51602;SDS011;37954;51.980;5.850;2022-12-07T10:07:03;2.70;;;2.10;;
51602;SDS011;37954;51.980;5.850;2022-12-07T10:11:15;5.57;;;2.80;;
51602;SDS011;37954;51.980;5.850;2022-12-07T10:20:23;2.53;;;2.00;;
51602;SDS011;37954;51.980;5.850;2022-12-07T10:24:38;3.77;;;1.90;;
51602;SDS011;37954;51.980;5.850;2022-12-07T10:28:52;5.40;;;2.27;;
51602;SDS011;37954;51.980;5.850;2022-12-07T10:33:03;6.70;;;1.90;;
51602;SDS011;37954;51.980;5.850;2022-12-07T10:37:48;2.07;;;1.40;;
51602;SDS011;37954;51.980;5.850;2022-12-07T10:42:00;9.13;;;1.80;;
51602;SDS011;37954;51.980;5.850;2022-12-07T10:46:20;3.60;;;1.77;;
51602;SDS011;37954;51.980;5.850;2022-12-07T10:50:50;4.47;;;1.90;;
51602;SDS011;37954;51.980;5.850;2022-12-07T11:08:54;2.57;;;1.57;;
51602;SDS011;37954;51.980;5.850;2022-12-07T11:13:23;5.20;;;2.30;;
51602;SDS011;37954;51.980;5.850;2022-12-07T11:17:48;3.80;;;1.60;;
51602;SDS011;37954;51.980;5.850;2022-12-07T11:22:09;7.40;;;1.60;;
51602;SDS011;37954;51.980;5.850;2022-12-07T11:35:11;1.40;;;1.30;;
51602;SDS011;37954;51.980;5.850;2022-12-07T11:39:46;5.80;;;1.50;;
51602;SDS011;37954;51.980;5.850;2022-12-07T11:44:05;3.70;;;1.87;;
51602;SDS011;37954;51.980;5.850;2022-12-07T11:48:21;3.83;;;1.50;;
51602;SDS011;37954;51.980;5.850;2022-12-07T11:57:20;8.07;;;2.30;;
51602;SDS011;37954;51.980;5.850;2022-12-07T12:05:50;1.57;;;1.20;;
51602;SDS011;37954;51.980;5.850;2022-12-07T12:10:06;2.70;;;1.67;;
51602;SDS011;37954;51.980;5.850;2022-12-07T12:19:14;4.83;;;1.93;;
51602;SDS011;37954;51.980;5.850;2022-12-07T12:27:59;4.10;;;1.67;;
51602;SDS011;37954;51.980;5.850;2022-12-07T12:32:15;3.63;;;1.57;;
51602;SDS011;37954;51.980;5.850;2022-12-07T12:40:41;3.43;;;1.67;;
51602;SDS011;37954;51.980;5.850;2022-12-07T12:45:16;7.07;;;1.40;;
51602;SDS011;37954;51.980;5.850;2022-12-07T12:49:36;2.27;;;1.43;;
51602;SDS011;37954;51.980;5.850;2022-12-07T12:53:50;1.60;;;1.40;;
51602;SDS011;37954;51.980;5.850;2022-12-07T13:02:28;3.07;;;1.53;;
51602;SDS011;37954;51.980;5.850;2022-12-07T13:06:43;8.70;;;1.50;;
51602;SDS011;37954;51.980;5.850;2022-12-07T13:10:55;4.93;;;1.90;;
51602;SDS011;37954;51.980;5.850;2022-12-07T13:19:53;2.47;;;1.60;;
51602;SDS011;37954;51.980;5.850;2022-12-07T13:24:06;4.60;;;1.57;;
51602;SDS011;37954;51.980;5.850;2022-12-07T13:28:21;7.17;;;1.63;;
51602;SDS011;37954;51.980;5.850;2022-12-07T13:32:37;3.17;;;1.80;;
51602;SDS011;37954;51.980;5.850;2022-12-07T13:36:50;5.80;;;1.50;;
51602;SDS011;37954;51.980;5.850;2022-12-07T13:41:11;4.23;;;1.30;;
51602;SDS011;37954;51.980;5.850;2022-12-07T13:45:25;5.07;;;1.67;;
51602;SDS011;37954;51.980;5.850;2022-12-07T13:50:00;2.13;;;1.57;;
51602;SDS011;37954;51.980;5.850;2022-12-07T13:54:12;2.83;;;1.60;;
51602;SDS011;37954;51.980;5.850;2022-12-07T13:58:25;4.80;;;1.37;;
51602;SDS011;37954;51.980;5.850;2022-12-07T14:02:57;2.40;;;1.20;;
51602;SDS011;37954;51.980;5.850;2022-12-07T14:07:25;2.07;;;1.23;;
51602;SDS011;37954;51.980;5.850;2022-12-07T14:11:38;2.40;;;1.53;;
51602;SDS011;37954;51.980;5.850;2022-12-07T14:15:50;1.93;;;1.40;;
51602;SDS011;37954;51.980;5.850;2022-12-07T14:20:03;3.57;;;1.30;;
51602;SDS011;37954;51.980;5.850;2022-12-07T14:24:17;1.10;;;1.00;;
51602;SDS011;37954;51.980;5.850;2022-12-07T14:28:31;1.87;;;1.20;;
51602;SDS011;37954;51.980;5.850;2022-12-07T14:32:44;2.53;;;1.40;;
51602;SDS011;37954;51.980;5.850;2022-12-07T14:36:59;8.53;;;1.60;;
51602;SDS011;37954;51.980;5.850;2022-12-07T14:41:16;2.37;;;1.30;;
51602;SDS011;37954;51.980;5.850;2022-12-07T14:45:52;3.37;;;1.47;;
51602;SDS011;37954;51.980;5.850;2022-12-07T14:50:04;4.57;;;2.10;;
51602;SDS011;37954;51.980;5.850;2022-12-07T14:54:18;4.07;;;1.90;;
51602;SDS011;37954;51.980;5.850;2022-12-07T14:58:31;2.07;;;1.70;;
51602;SDS011;37954;51.980;5.850;2022-12-07T15:02:44;1.30;;;0.90;;
51602;SDS011;37954;51.980;5.850;2022-12-07T15:06:57;3.50;;;1.43;;
51602;SDS011;37954;51.980;5.850;2022-12-07T15:11:14;1.70;;;1.00;;
51602;SDS011;37954;51.980;5.850;2022-12-07T15:15:26;4.73;;;1.47;;
51602;SDS011;37954;51.980;5.850;2022-12-07T15:19:42;5.17;;;1.70;;
51602;SDS011;37954;51.980;5.850;2022-12-07T15:23:54;4.00;;;1.60;;
51602;SDS011;37954;51.980;5.850;2022-12-07T15:28:05;4.17;;;2.07;;
51602;SDS011;37954;51.980;5.850;2022-12-07T15:32:17;5.37;;;2.60;;
51602;SDS011;37954;51.980;5.850;2022-12-07T15:36:30;3.43;;;1.83;;
51602;SDS011;37954;51.980;5.850;2022-12-07T15:40:46;4.47;;;1.87;;
51602;SDS011;37954;51.980;5.850;2022-12-07T15:44:58;4.83;;;1.50;;
51602;SDS011;37954;51.980;5.850;2022-12-07T15:49:17;2.53;;;1.50;;
51602;SDS011;37954;51.980;5.850;2022-12-07T15:53:29;5.97;;;2.17;;
51602;SDS011;37954;51.980;5.850;2022-12-07T15:57:41;4.20;;;2.10;;
51602;SDS011;37954;51.980;5.850;2022-12-07T16:01:53;4.63;;;2.57;;
51602;SDS011;37954;51.980;5.850;2022-12-07T16:06:05;6.60;;;2.80;;
51602;SDS011;37954;51.980;5.850;2022-12-07T16:10:17;6.77;;;4.60;;
51602;SDS011;37954;51.980;5.850;2022-12-07T16:14:29;6.47;;;4.67;;
51602;SDS011;37954;51.980;5.850;2022-12-07T16:18:43;7.97;;;2.43;;
51602;SDS011;37954;51.980;5.850;2022-12-07T16:22:56;6.43;;;2.07;;
51602;SDS011;37954;51.980;5.850;2022-12-07T16:27:08;3.50;;;1.80;;
51602;SDS011;37954;51.980;5.850;2022-12-07T16:31:20;5.77;;;2.40;;
51602;SDS011;37954;51.980;5.850;2022-12-07T16:35:34;7.37;;;4.07;;
51602;SDS011;37954;51.980;5.850;2022-12-07T16:39:49;2.90;;;2.27;;
51602;SDS011;37954;51.980;5.850;2022-12-07T16:44:05;3.40;;;2.58;;
51602;SDS011;37954;51.980;5.850;2022-12-07T16:48:18;2.83;;;2.63;;
51602;SDS011;37954;51.980;5.850;2022-12-07T16:52:30;3.20;;;2.23;;
51602;SDS011;37954;51.980;5.850;2022-12-07T16:56:42;2.83;;;2.50;;
51602;SDS011;37954;51.980;5.850;2022-12-07T17:00:54;4.57;;;2.10;;
51602;SDS011;37954;51.980;5.850;2022-12-07T17:05:06;4.47;;;4.07;;
51602;SDS011;37954;51.980;5.850;2022-12-07T17:09:18;6.10;;;3.67;;
51602;SDS011;37954;51.980;5.850;2022-12-07T17:13:31;5.10;;;2.87;;
51602;SDS011;37954;51.980;5.850;2022-12-07T17:18:02;2.90;;;2.20;;
51602;SDS011;37954;51.980;5.850;2022-12-07T17:22:13;3.23;;;2.30;;
51602;SDS011;37954;51.980;5.850;2022-12-07T17:26:25;4.03;;;2.90;;
51602;SDS011;37954;51.980;5.850;2022-12-07T17:30:45;6.63;;;5.80;;
51602;SDS011;37954;51.980;5.850;2022-12-07T17:34:57;4.87;;;3.80;;
51602;SDS011;37954;51.980;5.850;2022-12-07T17:39:10;8.87;;;4.67;;
51602;SDS011;37954;51.980;5.850;2022-12-07T17:43:22;5.40;;;4.90;;
51602;SDS011;37954;51.980;5.850;2022-12-07T17:47:35;6.73;;;4.10;;
51602;SDS011;37954;51.980;5.850;2022-12-07T17:51:47;13.53;;;9.83;;
51602;SDS011;37954;51.980;5.850;2022-12-07T17:56:17;8.17;;;4.73;;
51602;SDS011;37954;51.980;5.850;2022-12-07T18:00:39;7.00;;;3.67;;
51602;SDS011;37954;51.980;5.850;2022-12-07T18:04:51;14.53;;;9.80;;
51602;SDS011;37954;51.980;5.850;2022-12-07T18:09:03;15.63;;;10.90;;
51602;SDS011;37954;51.980;5.850;2022-12-07T18:13:15;7.67;;;4.57;;
51602;SDS011;37954;51.980;5.850;2022-12-07T18:17:45;5.40;;;4.13;;
51602;SDS011;37954;51.980;5.850;2022-12-07T18:21:57;8.67;;;4.20;;
51602;SDS011;37954;51.980;5.850;2022-12-07T18:26:10;9.50;;;8.47;;
51602;SDS011;37954;51.980;5.850;2022-12-07T18:30:22;5.27;;;4.70;;
51602;SDS011;37954;51.980;5.850;2022-12-07T18:34:53;5.23;;;3.73;;
51602;SDS011;37954;51.980;5.850;2022-12-07T18:39:05;6.53;;;3.50;;
51602;SDS011;37954;51.980;5.850;2022-12-07T18:43:17;4.77;;;4.20;;
51602;SDS011;37954;51.980;5.850;2022-12-07T18:47:29;15.77;;;10.10;;
51602;SDS011;37954;51.980;5.850;2022-12-07T18:51:41;14.33;;;8.87;;
51602;SDS011;37954;51.980;5.850;2022-12-07T18:55:59;7.17;;;5.67;;
51602;SDS011;37954;51.980;5.850;2022-12-07T19:00:13;5.03;;;3.17;;
51602;SDS011;37954;51.980;5.850;2022-12-07T19:04:25;5.37;;;2.60;;
51602;SDS011;37954;51.980;5.850;2022-12-07T19:08:36;4.23;;;2.33;;
51602;SDS011;37954;51.980;5.850;2022-12-07T19:12:48;6.50;;;3.00;;
51602;SDS011;37954;51.980;5.850;2022-12-07T19:17:01;5.23;;;3.37;;
51602;SDS011;37954;51.980;5.850;2022-12-07T19:21:16;2.47;;;2.27;;
51602;SDS011;37954;51.980;5.850;2022-12-07T19:25:29;3.63;;;3.07;;
51602;SDS011;37954;51.980;5.850;2022-12-07T19:29:41;12.10;;;7.43;;
51602;SDS011;37954;51.980;5.850;2022-12-07T19:33:53;15.63;;;9.17;;
51602;SDS011;37954;51.980;5.850;2022-12-07T19:38:05;19.20;;;11.03;;
51602;SDS011;37954;51.980;5.850;2022-12-07T19:42:17;34.23;;;24.73;;
51602;SDS011;37954;51.980;5.850;2022-12-07T19:46:29;4.30;;;3.10;;
51602;SDS011;37954;51.980;5.850;2022-12-07T19:50:40;6.60;;;4.17;;
51602;SDS011;37954;51.980;5.850;2022-12-07T19:54:52;3.87;;;2.83;;
51602;SDS011;37954;51.980;5.850;2022-12-07T19:59:05;3.33;;;2.70;;
51602;SDS011;37954;51.980;5.850;2022-12-07T20:03:17;4.27;;;2.83;;
51602;SDS011;37954;51.980;5.850;2022-12-07T20:07:29;5.30;;;2.90;;
51602;SDS011;37954;51.980;5.850;2022-12-07T20:11:42;3.13;;;2.60;;
51602;SDS011;37954;51.980;5.850;2022-12-07T20:16:12;3.70;;;2.80;;
51602;SDS011;37954;51.980;5.850;2022-12-07T20:20:30;6.10;;;3.50;;
51602;SDS011;37954;51.980;5.850;2022-12-07T20:24:42;5.53;;;3.63;;
51602;SDS011;37954;51.980;5.850;2022-12-07T20:28:53;12.60;;;7.17;;
51602;SDS011;37954;51.980;5.850;2022-12-07T20:33:05;8.33;;;5.73;;
51602;SDS011;37954;51.980;5.850;2022-12-07T20:37:17;7.53;;;5.40;;
51602;SDS011;37954;51.980;5.850;2022-12-07T20:41:28;9.33;;;6.30;;
51602;SDS011;37954;51.980;5.850;2022-12-07T20:45:59;9.73;;;7.23;;
51602;SDS011;37954;51.980;5.850;2022-12-07T20:50:11;11.17;;;5.30;;
51602;SDS011;37954;51.980;5.850;2022-12-07T20:54:23;7.73;;;5.43;;
51602;SDS011;37954;51.980;5.850;2022-12-07T20:58:34;6.87;;;5.20;;
51602;SDS011;37954;51.980;5.850;2022-12-07T21:02:46;6.87;;;5.50;;
51602;SDS011;37954;51.980;5.850;2022-12-07T21:06:58;8.03;;;5.43;;
51602;SDS011;37954;51.980;5.850;2022-12-07T21:11:10;7.20;;;5.20;;
51602;SDS011;37954;51.980;5.850;2022-12-07T21:15:22;9.03;;;4.90;;
51602;SDS011;37954;51.980;5.850;2022-12-07T21:19:33;7.95;;;5.55;;
51602;SDS011;37954;51.980;5.850;2022-12-07T21:23:45;7.23;;;4.83;;
51602;SDS011;37954;51.980;5.850;2022-12-07T21:27:59;8.80;;;4.87;;
51602;SDS011;37954;51.980;5.850;2022-12-07T21:32:11;7.37;;;5.40;;
51602;SDS011;37954;51.980;5.850;2022-12-07T21:36:24;7.80;;;5.07;;
51602;SDS011;37954;51.980;5.850;2022-12-07T21:40:36;7.20;;;4.70;;
51602;SDS011;37954;51.980;5.850;2022-12-07T21:44:48;8.73;;;5.20;;
51602;SDS011;37954;51.980;5.850;2022-12-07T21:49:01;8.53;;;4.27;;
51602;SDS011;37954;51.980;5.850;2022-12-07T21:53:17;8.13;;;4.53;;
51602;SDS011;37954;51.980;5.850;2022-12-07T21:57:30;7.43;;;4.00;;
51602;SDS011;37954;51.980;5.850;2022-12-07T22:01:43;5.63;;;4.10;;
51602;SDS011;37954;51.980;5.850;2022-12-07T22:06:00;4.27;;;3.77;;
51602;SDS011;37954;51.980;5.850;2022-12-07T22:10:12;3.83;;;3.23;;
51602;SDS011;37954;51.980;5.850;2022-12-07T22:14:38;6.30;;;4.07;;
51602;SDS011;37954;51.980;5.850;2022-12-07T22:19:08;7.07;;;3.83;;
51602;SDS011;37954;51.980;5.850;2022-12-07T22:23:19;7.70;;;4.50;;
51602;SDS011;37954;51.980;5.850;2022-12-07T22:27:31;5.23;;;4.10;;
51602;SDS011;37954;51.980;5.850;2022-12-07T22:31:43;9.03;;;4.27;;
51602;SDS011;37954;51.980;5.850;2022-12-07T22:36:03;5.50;;;4.30;;
51602;SDS011;37954;51.980;5.850;2022-12-07T22:40:15;5.30;;;4.40;;
51602;SDS011;37954;51.980;5.850;2022-12-07T22:44:26;9.77;;;6.87;;
51602;SDS011;37954;51.980;5.850;2022-12-07T22:48:38;7.07;;;4.50;;
51602;SDS011;37954;51.980;5.850;2022-12-07T22:52:51;11.23;;;8.27;;
51602;SDS011;37954;51.980;5.850;2022-12-07T22:57:05;6.73;;;5.33;;
51602;SDS011;37954;51.980;5.850;2022-12-07T23:01:17;6.00;;;5.10;;
51602;SDS011;37954;51.980;5.850;2022-12-07T23:05:30;6.97;;;5.47;;
51602;SDS011;37954;51.980;5.850;2022-12-07T23:09:41;6.63;;;5.37;;
51602;SDS011;37954;51.980;5.850;2022-12-07T23:13:53;7.77;;;5.27;;
51602;SDS011;37954;51.980;5.850;2022-12-07T23:18:04;6.00;;;4.77;;
51602;SDS011;37954;51.980;5.850;2022-12-07T23:22:16;6.83;;;4.90;;
51602;SDS011;37954;51.980;5.850;2022-12-07T23:26:28;5.67;;;4.23;;
51602;SDS011;37954;51.980;5.850;2022-12-07T23:30:39;5.77;;;4.90;;
51602;SDS011;37954;51.980;5.850;2022-12-07T23:34:51;8.00;;;5.10;;
51602;SDS011;37954;51.980;5.850;2022-12-07T23:39:02;6.93;;;4.63;;
51602;SDS011;37954;51.980;5.850;2022-12-07T23:43:14;9.37;;;4.97;;
51602;SDS011;37954;51.980;5.850;2022-12-07T23:47:26;5.63;;;4.77;;
51602;SDS011;37954;51.980;5.850;2022-12-07T23:51:37;4.97;;;4.47;;
51602;SDS011;37954;51.980;5.850;2022-12-07T23:55:49;5.30;;;4.77;;
